sensor_id;sensor_type;location;lat;lon;timestamp;P1;durP1;ratioP1;P2;durP2;ratioP2
48813;SDS011;34634;44.108;3.074;2023-06-19T00:01:23;9.93;;;5.13;;
48813;SDS011;34634;44.108;3.074;2023-06-19T00:03:50;6.55;;;5.00;;
48813;SDS011;34634;44.108;3.074;2023-06-19T00:06:16;8.40;;;4.90;;
48813;SDS011;34634;44.108;3.074;2023-06-19T00:08:42;10.75;;;5.28;;
48813;SDS011;34634;44.108;3.074;2023-06-19T00:11:09;8.50;;;5.28;;
48813;SDS011;34634;44.108;3.074;2023-06-19T00:13:35;9.13;;;4.85;;
48813;SDS011;34634;44.108;3.074;2023-06-19T00:16:01;7.18;;;5.00;;
48813;SDS011;34634;44.108;3.074;2023-06-19T00:18:28;6.82;;;4.88;;
48813;SDS011;34634;44.108;3.074;2023-06-19T00:20:54;9.38;;;5.20;;
48813;SDS011;34634;44.108;3.074;2023-06-19T00:23:22;6.95;;;5.00;;
48813;SDS011;34634;44.108;3.074;2023-06-19T00:25:48;6.68;;;5.03;;
48813;SDS011;34634;44.108;3.074;2023-06-19T00:28:15;5.18;;;4.68;;
48813;SDS011;34634;44.108;3.074;2023-06-19T00:30:45;7.83;;;5.10;;
48813;SDS011;34634;44.108;3.074;2023-06-19T00:33:11;6.00;;;5.07;;
48813;SDS011;34634;44.108;3.074;2023-06-19T00:35:37;8.15;;;5.15;;
48813;SDS011;34634;44.108;3.074;2023-06-19T00:38:05;10.98;;;4.93;;
48813;SDS011;34634;44.108;3.074;2023-06-19T00:40:32;7.47;;;5.15;;
48813;SDS011;34634;44.108;3.074;2023-06-19T00:42:58;12.18;;;5.50;;
48813;SDS011;34634;44.108;3.074;2023-06-19T00:45:25;10.13;;;5.20;;
48813;SDS011;34634;44.108;3.074;2023-06-19T00:47:55;7.68;;;5.70;;
48813;SDS011;34634;44.108;3.074;2023-06-19T00:50:22;7.57;;;5.10;;
48813;SDS011;34634;44.108;3.074;2023-06-19T00:52:48;10.18;;;5.13;;
48813;SDS011;34634;44.108;3.074;2023-06-19T00:55:15;8.80;;;5.20;;
48813;SDS011;34634;44.108;3.074;2023-06-19T00:57:42;6.20;;;5.00;;
48813;SDS011;34634;44.108;3.074;2023-06-19T01:00:09;5.60;;;4.38;;
48813;SDS011;34634;44.108;3.074;2023-06-19T01:02:38;8.52;;;4.93;;
48813;SDS011;34634;44.108;3.074;2023-06-19T01:05:04;8.73;;;4.35;;
48813;SDS011;34634;44.108;3.074;2023-06-19T01:07:32;6.60;;;4.78;;
48813;SDS011;34634;44.108;3.074;2023-06-19T01:10:06;8.02;;;4.97;;
48813;SDS011;34634;44.108;3.074;2023-06-19T01:12:36;7.85;;;5.18;;
48813;SDS011;34634;44.108;3.074;2023-06-19T01:15:03;7.43;;;5.10;;
48813;SDS011;34634;44.108;3.074;2023-06-19T01:17:30;8.57;;;5.05;;
48813;SDS011;34634;44.108;3.074;2023-06-19T01:19:57;8.80;;;4.82;;
48813;SDS011;34634;44.108;3.074;2023-06-19T01:22:30;8.80;;;5.70;;
48813;SDS011;34634;44.108;3.074;2023-06-19T01:24:56;11.38;;;5.03;;
48813;SDS011;34634;44.108;3.074;2023-06-19T01:27:23;6.40;;;4.90;;
48813;SDS011;34634;44.108;3.074;2023-06-19T01:29:57;11.27;;;4.68;;
48813;SDS011;34634;44.108;3.074;2023-06-19T01:35:09;6.68;;;4.85;;
48813;SDS011;34634;44.108;3.074;2023-06-19T01:37:36;11.30;;;5.00;;
48813;SDS011;34634;44.108;3.074;2023-06-19T01:40:04;7.53;;;4.93;;
48813;SDS011;34634;44.108;3.074;2023-06-19T01:42:31;9.02;;;4.85;;
48813;SDS011;34634;44.108;3.074;2023-06-19T01:44:58;6.05;;;4.50;;
48813;SDS011;34634;44.108;3.074;2023-06-19T01:47:25;7.93;;;4.60;;
48813;SDS011;34634;44.108;3.074;2023-06-19T01:49:51;6.53;;;4.45;;
48813;SDS011;34634;44.108;3.074;2023-06-19T01:52:18;5.85;;;4.85;;
48813;SDS011;34634;44.108;3.074;2023-06-19T01:54:44;10.50;;;5.18;;
48813;SDS011;34634;44.108;3.074;2023-06-19T01:57:10;9.32;;;5.47;;
48813;SDS011;34634;44.108;3.074;2023-06-19T01:59:37;7.40;;;5.22;;
48813;SDS011;34634;44.108;3.074;2023-06-19T02:02:03;5.95;;;4.60;;
48813;SDS011;34634;44.108;3.074;2023-06-19T02:04:32;7.72;;;5.03;;
48813;SDS011;34634;44.108;3.074;2023-06-19T02:06:58;6.18;;;4.50;;
48813;SDS011;34634;44.108;3.074;2023-06-19T02:09:25;6.97;;;5.03;;
48813;SDS011;34634;44.108;3.074;2023-06-19T02:11:52;6.03;;;5.32;;
48813;SDS011;34634;44.108;3.074;2023-06-19T02:14:18;10.07;;;5.60;;
48813;SDS011;34634;44.108;3.074;2023-06-19T02:16:44;6.47;;;4.90;;
48813;SDS011;34634;44.108;3.074;2023-06-19T02:19:11;6.15;;;5.32;;
48813;SDS011;34634;44.108;3.074;2023-06-19T02:21:37;7.25;;;5.65;;
48813;SDS011;34634;44.108;3.074;2023-06-19T02:24:04;8.98;;;5.82;;
48813;SDS011;34634;44.108;3.074;2023-06-19T02:26:31;7.70;;;5.38;;
48813;SDS011;34634;44.108;3.074;2023-06-19T02:28:57;9.23;;;5.68;;
48813;SDS011;34634;44.108;3.074;2023-06-19T02:31:23;7.97;;;5.15;;
48813;SDS011;34634;44.108;3.074;2023-06-19T02:33:50;8.10;;;5.03;;
48813;SDS011;34634;44.108;3.074;2023-06-19T02:36:16;9.30;;;5.18;;
48813;SDS011;34634;44.108;3.074;2023-06-19T02:38:46;10.85;;;5.40;;
48813;SDS011;34634;44.108;3.074;2023-06-19T02:41:12;7.88;;;4.93;;
48813;SDS011;34634;44.108;3.074;2023-06-19T02:43:39;12.13;;;5.35;;
48813;SDS011;34634;44.108;3.074;2023-06-19T02:46:06;7.97;;;5.18;;
48813;SDS011;34634;44.108;3.074;2023-06-19T02:48:32;7.03;;;4.68;;
48813;SDS011;34634;44.108;3.074;2023-06-19T02:50:58;6.70;;;5.35;;
48813;SDS011;34634;44.108;3.074;2023-06-19T02:53:25;11.85;;;5.70;;
48813;SDS011;34634;44.108;3.074;2023-06-19T02:55:51;7.55;;;5.07;;
48813;SDS011;34634;44.108;3.074;2023-06-19T02:58:17;11.73;;;5.43;;
48813;SDS011;34634;44.108;3.074;2023-06-19T03:00:44;7.38;;;5.55;;
48813;SDS011;34634;44.108;3.074;2023-06-19T03:03:10;9.73;;;5.13;;
48813;SDS011;34634;44.108;3.074;2023-06-19T03:05:37;8.20;;;5.20;;
48813;SDS011;34634;44.108;3.074;2023-06-19T03:08:04;9.15;;;5.70;;
48813;SDS011;34634;44.108;3.074;2023-06-19T03:10:31;7.32;;;5.68;;
48813;SDS011;34634;44.108;3.074;2023-06-19T03:12:57;9.27;;;5.13;;
48813;SDS011;34634;44.108;3.074;2023-06-19T03:15:26;10.10;;;5.15;;
48813;SDS011;34634;44.108;3.074;2023-06-19T03:17:53;10.00;;;5.30;;
48813;SDS011;34634;44.108;3.074;2023-06-19T03:20:19;10.82;;;5.32;;
48813;SDS011;34634;44.108;3.074;2023-06-19T03:22:46;9.10;;;5.70;;
48813;SDS011;34634;44.108;3.074;2023-06-19T03:25:13;9.50;;;5.75;;
48813;SDS011;34634;44.108;3.074;2023-06-19T03:27:39;7.07;;;5.20;;
48813;SDS011;34634;44.108;3.074;2023-06-19T03:30:05;6.47;;;5.65;;
48813;SDS011;34634;44.108;3.074;2023-06-19T03:32:33;8.20;;;5.70;;
48813;SDS011;34634;44.108;3.074;2023-06-19T03:35:00;10.05;;;5.53;;
48813;SDS011;34634;44.108;3.074;2023-06-19T03:37:27;9.27;;;5.40;;
48813;SDS011;34634;44.108;3.074;2023-06-19T03:39:53;9.50;;;5.85;;
48813;SDS011;34634;44.108;3.074;2023-06-19T03:42:20;8.57;;;6.03;;
48813;SDS011;34634;44.108;3.074;2023-06-19T03:44:47;7.20;;;5.70;;
48813;SDS011;34634;44.108;3.074;2023-06-19T03:47:13;8.07;;;5.22;;
48813;SDS011;34634;44.108;3.074;2023-06-19T03:49:39;8.80;;;5.53;;
48813;SDS011;34634;44.108;3.074;2023-06-19T03:52:06;7.55;;;5.50;;
48813;SDS011;34634;44.108;3.074;2023-06-19T03:54:32;7.57;;;5.95;;
48813;SDS011;34634;44.108;3.074;2023-06-19T03:56:59;7.03;;;5.82;;
48813;SDS011;34634;44.108;3.074;2023-06-19T03:59:25;11.85;;;6.00;;
48813;SDS011;34634;44.108;3.074;2023-06-19T04:01:51;7.57;;;5.85;;
48813;SDS011;34634;44.108;3.074;2023-06-19T04:04:18;8.93;;;6.45;;
48813;SDS011;34634;44.108;3.074;2023-06-19T04:06:44;6.72;;;6.03;;
48813;SDS011;34634;44.108;3.074;2023-06-19T04:09:12;10.80;;;5.57;;
48813;SDS011;34634;44.108;3.074;2023-06-19T04:11:38;6.90;;;5.55;;
48813;SDS011;34634;44.108;3.074;2023-06-19T04:14:04;8.57;;;5.35;;
48813;SDS011;34634;44.108;3.074;2023-06-19T04:16:31;7.25;;;5.60;;
48813;SDS011;34634;44.108;3.074;2023-06-19T04:18:57;11.25;;;6.00;;
48813;SDS011;34634;44.108;3.074;2023-06-19T04:21:23;9.32;;;5.70;;
48813;SDS011;34634;44.108;3.074;2023-06-19T04:23:50;8.20;;;5.80;;
48813;SDS011;34634;44.108;3.074;2023-06-19T04:26:16;8.18;;;5.30;;
48813;SDS011;34634;44.108;3.074;2023-06-19T04:28:43;10.18;;;5.70;;
48813;SDS011;34634;44.108;3.074;2023-06-19T04:31:09;10.82;;;5.43;;
48813;SDS011;34634;44.108;3.074;2023-06-19T04:33:36;6.43;;;5.25;;
48813;SDS011;34634;44.108;3.074;2023-06-19T04:36:02;5.60;;;5.00;;
48813;SDS011;34634;44.108;3.074;2023-06-19T04:38:28;9.15;;;5.50;;
48813;SDS011;34634;44.108;3.074;2023-06-19T04:40:55;9.07;;;5.43;;
48813;SDS011;34634;44.108;3.074;2023-06-19T04:43:22;6.60;;;5.68;;
48813;SDS011;34634;44.108;3.074;2023-06-19T04:45:50;8.90;;;5.55;;
48813;SDS011;34634;44.108;3.074;2023-06-19T04:48:16;6.93;;;5.65;;
48813;SDS011;34634;44.108;3.074;2023-06-19T04:50:42;8.48;;;5.38;;
48813;SDS011;34634;44.108;3.074;2023-06-19T04:53:09;9.68;;;5.40;;
48813;SDS011;34634;44.108;3.074;2023-06-19T04:55:35;6.95;;;6.03;;
48813;SDS011;34634;44.108;3.074;2023-06-19T04:58:02;8.00;;;5.55;;
48813;SDS011;34634;44.108;3.074;2023-06-19T05:00:29;7.55;;;5.97;;
48813;SDS011;34634;44.108;3.074;2023-06-19T05:02:55;8.13;;;5.78;;
48813;SDS011;34634;44.108;3.074;2023-06-19T05:05:26;9.43;;;5.77;;
48813;SDS011;34634;44.108;3.074;2023-06-19T05:07:53;12.32;;;6.20;;
48813;SDS011;34634;44.108;3.074;2023-06-19T05:10:19;6.53;;;5.50;;
48813;SDS011;34634;44.108;3.074;2023-06-19T05:12:46;6.80;;;6.03;;
48813;SDS011;34634;44.108;3.074;2023-06-19T05:15:12;8.75;;;6.20;;
48813;SDS011;34634;44.108;3.074;2023-06-19T05:17:39;11.40;;;6.07;;
48813;SDS011;34634;44.108;3.074;2023-06-19T05:20:05;12.07;;;6.30;;
48813;SDS011;34634;44.108;3.074;2023-06-19T05:22:35;10.07;;;5.40;;
48813;SDS011;34634;44.108;3.074;2023-06-19T05:25:02;7.05;;;5.50;;
48813;SDS011;34634;44.108;3.074;2023-06-19T05:27:28;10.07;;;5.50;;
48813;SDS011;34634;44.108;3.074;2023-06-19T05:29:55;8.55;;;5.82;;
48813;SDS011;34634;44.108;3.074;2023-06-19T05:32:21;7.80;;;5.50;;
48813;SDS011;34634;44.108;3.074;2023-06-19T05:34:47;6.65;;;5.13;;
48813;SDS011;34634;44.108;3.074;2023-06-19T05:37:13;11.32;;;5.72;;
48813;SDS011;34634;44.108;3.074;2023-06-19T05:39:40;10.00;;;5.43;;
48813;SDS011;34634;44.108;3.074;2023-06-19T05:42:06;10.10;;;5.80;;
48813;SDS011;34634;44.108;3.074;2023-06-19T05:44:33;10.00;;;5.60;;
48813;SDS011;34634;44.108;3.074;2023-06-19T05:46:59;11.45;;;5.30;;
48813;SDS011;34634;44.108;3.074;2023-06-19T05:49:25;10.40;;;5.85;;
48813;SDS011;34634;44.108;3.074;2023-06-19T05:51:52;9.30;;;5.85;;
48813;SDS011;34634;44.108;3.074;2023-06-19T05:54:18;7.05;;;5.30;;
48813;SDS011;34634;44.108;3.074;2023-06-19T05:56:44;8.98;;;5.32;;
48813;SDS011;34634;44.108;3.074;2023-06-19T05:59:12;11.30;;;5.70;;
48813;SDS011;34634;44.108;3.074;2023-06-19T06:01:39;10.98;;;5.65;;
48813;SDS011;34634;44.108;3.074;2023-06-19T06:04:06;9.90;;;5.60;;
48813;SDS011;34634;44.108;3.074;2023-06-19T06:06:32;7.88;;;5.65;;
48813;SDS011;34634;44.108;3.074;2023-06-19T06:08:58;6.50;;;5.30;;
48813;SDS011;34634;44.108;3.074;2023-06-19T06:11:24;16.58;;;6.07;;
48813;SDS011;34634;44.108;3.074;2023-06-19T06:13:51;8.00;;;5.50;;
48813;SDS011;34634;44.108;3.074;2023-06-19T06:16:17;11.20;;;4.93;;
48813;SDS011;34634;44.108;3.074;2023-06-19T06:18:44;8.82;;;5.75;;
48813;SDS011;34634;44.108;3.074;2023-06-19T06:21:11;7.00;;;5.10;;
48813;SDS011;34634;44.108;3.074;2023-06-19T06:23:38;14.27;;;5.50;;
48813;SDS011;34634;44.108;3.074;2023-06-19T06:26:06;8.95;;;5.32;;
48813;SDS011;34634;44.108;3.074;2023-06-19T06:28:32;7.15;;;4.40;;
48813;SDS011;34634;44.108;3.074;2023-06-19T06:30:59;9.65;;;4.97;;
48813;SDS011;34634;44.108;3.074;2023-06-19T06:33:25;7.65;;;4.90;;
48813;SDS011;34634;44.108;3.074;2023-06-19T06:35:54;7.18;;;4.60;;
48813;SDS011;34634;44.108;3.074;2023-06-19T06:38:21;7.05;;;4.97;;
48813;SDS011;34634;44.108;3.074;2023-06-19T06:40:47;7.13;;;4.72;;
48813;SDS011;34634;44.108;3.074;2023-06-19T06:43:14;8.02;;;4.68;;
48813;SDS011;34634;44.108;3.074;2023-06-19T06:45:40;6.22;;;4.72;;
48813;SDS011;34634;44.108;3.074;2023-06-19T06:48:07;15.40;;;4.80;;
48813;SDS011;34634;44.108;3.074;2023-06-19T06:50:34;14.25;;;5.07;;
48813;SDS011;34634;44.108;3.074;2023-06-19T06:53:00;8.88;;;4.93;;
48813;SDS011;34634;44.108;3.074;2023-06-19T06:55:27;8.35;;;4.45;;
48813;SDS011;34634;44.108;3.074;2023-06-19T06:57:53;6.53;;;5.10;;
48813;SDS011;34634;44.108;3.074;2023-06-19T07:00:19;7.75;;;5.65;;
48813;SDS011;34634;44.108;3.074;2023-06-19T07:02:46;6.47;;;5.03;;
48813;SDS011;34634;44.108;3.074;2023-06-19T07:05:15;7.53;;;4.65;;
48813;SDS011;34634;44.108;3.074;2023-06-19T07:07:41;24.58;;;5.60;;
48813;SDS011;34634;44.108;3.074;2023-06-19T07:10:08;7.97;;;4.80;;
48813;SDS011;34634;44.108;3.074;2023-06-19T07:12:35;27.25;;;5.80;;
48813;SDS011;34634;44.108;3.074;2023-06-19T07:15:01;15.90;;;5.20;;
48813;SDS011;34634;44.108;3.074;2023-06-19T07:17:27;7.15;;;4.75;;
48813;SDS011;34634;44.108;3.074;2023-06-19T07:19:54;14.10;;;4.97;;
48813;SDS011;34634;44.108;3.074;2023-06-19T07:22:20;13.82;;;5.10;;
48813;SDS011;34634;44.108;3.074;2023-06-19T07:24:46;7.13;;;5.20;;
48813;SDS011;34634;44.108;3.074;2023-06-19T07:27:13;9.13;;;5.22;;
48813;SDS011;34634;44.108;3.074;2023-06-19T07:29:39;7.35;;;4.63;;
48813;SDS011;34634;44.108;3.074;2023-06-19T07:32:05;7.82;;;4.65;;
48813;SDS011;34634;44.108;3.074;2023-06-19T07:34:32;6.47;;;4.53;;
48813;SDS011;34634;44.108;3.074;2023-06-19T07:36:58;7.07;;;4.90;;
48813;SDS011;34634;44.108;3.074;2023-06-19T07:39:24;7.32;;;4.82;;
48813;SDS011;34634;44.108;3.074;2023-06-19T07:41:51;10.70;;;4.90;;
48813;SDS011;34634;44.108;3.074;2023-06-19T07:44:17;10.85;;;5.13;;
48813;SDS011;34634;44.108;3.074;2023-06-19T07:46:46;12.05;;;4.85;;
48813;SDS011;34634;44.108;3.074;2023-06-19T07:49:12;8.25;;;4.90;;
48813;SDS011;34634;44.108;3.074;2023-06-19T07:51:39;9.60;;;5.18;;
48813;SDS011;34634;44.108;3.074;2023-06-19T07:54:05;8.20;;;5.25;;
48813;SDS011;34634;44.108;3.074;2023-06-19T07:56:31;11.05;;;5.50;;
48813;SDS011;34634;44.108;3.074;2023-06-19T07:58:58;10.77;;;5.32;;
48813;SDS011;34634;44.108;3.074;2023-06-19T08:01:25;11.02;;;5.25;;
48813;SDS011;34634;44.108;3.074;2023-06-19T08:03:51;10.65;;;5.00;;
48813;SDS011;34634;44.108;3.074;2023-06-19T08:06:18;8.68;;;5.20;;
48813;SDS011;34634;44.108;3.074;2023-06-19T08:08:44;7.57;;;5.07;;
48813;SDS011;34634;44.108;3.074;2023-06-19T08:11:10;8.10;;;4.72;;
48813;SDS011;34634;44.108;3.074;2023-06-19T08:13:37;8.45;;;4.47;;
48813;SDS011;34634;44.108;3.074;2023-06-19T08:16:03;6.57;;;4.50;;
48813;SDS011;34634;44.108;3.074;2023-06-19T08:18:30;11.63;;;4.80;;
48813;SDS011;34634;44.108;3.074;2023-06-19T08:20:56;8.02;;;3.88;;
48813;SDS011;34634;44.108;3.074;2023-06-19T08:23:22;5.53;;;4.18;;
48813;SDS011;34634;44.108;3.074;2023-06-19T08:25:49;6.10;;;3.80;;
48813;SDS011;34634;44.108;3.074;2023-06-19T08:28:16;9.32;;;3.80;;
48813;SDS011;34634;44.108;3.074;2023-06-19T08:30:44;8.93;;;3.88;;
48813;SDS011;34634;44.108;3.074;2023-06-19T08:33:10;6.22;;;3.60;;
48813;SDS011;34634;44.108;3.074;2023-06-19T08:35:38;6.10;;;3.47;;
48813;SDS011;34634;44.108;3.074;2023-06-19T08:38:04;4.55;;;3.90;;
48813;SDS011;34634;44.108;3.074;2023-06-19T08:40:30;11.20;;;4.10;;
48813;SDS011;34634;44.108;3.074;2023-06-19T08:42:57;6.90;;;3.65;;
48813;SDS011;34634;44.108;3.074;2023-06-19T08:45:25;6.38;;;3.60;;
48813;SDS011;34634;44.108;3.074;2023-06-19T08:47:57;5.72;;;3.50;;
48813;SDS011;34634;44.108;3.074;2023-06-19T08:50:24;7.47;;;3.75;;
48813;SDS011;34634;44.108;3.074;2023-06-19T08:52:51;8.60;;;3.90;;
48813;SDS011;34634;44.108;3.074;2023-06-19T08:55:17;6.22;;;3.85;;
48813;SDS011;34634;44.108;3.074;2023-06-19T08:57:43;5.03;;;3.75;;
48813;SDS011;34634;44.108;3.074;2023-06-19T09:00:10;7.38;;;3.75;;
48813;SDS011;34634;44.108;3.074;2023-06-19T09:02:40;5.47;;;3.55;;
48813;SDS011;34634;44.108;3.074;2023-06-19T09:07:33;7.38;;;4.03;;
48813;SDS011;34634;44.108;3.074;2023-06-19T09:09:59;6.82;;;3.83;;
48813;SDS011;34634;44.108;3.074;2023-06-19T09:12:25;6.65;;;3.88;;
48813;SDS011;34634;44.108;3.074;2023-06-19T09:14:52;7.25;;;4.18;;
48813;SDS011;34634;44.108;3.074;2023-06-19T09:17:19;7.13;;;4.10;;
48813;SDS011;34634;44.108;3.074;2023-06-19T09:19:52;8.73;;;4.15;;
48813;SDS011;34634;44.108;3.074;2023-06-19T09:22:21;6.07;;;3.65;;
48813;SDS011;34634;44.108;3.074;2023-06-19T09:24:48;4.78;;;3.90;;
48813;SDS011;34634;44.108;3.074;2023-06-19T09:27:16;7.72;;;3.92;;
48813;SDS011;34634;44.108;3.074;2023-06-19T09:29:46;5.60;;;4.25;;
48813;SDS011;34634;44.108;3.074;2023-06-19T09:34:45;7.60;;;4.60;;
48813;SDS011;34634;44.108;3.074;2023-06-19T09:37:12;5.50;;;4.18;;
48813;SDS011;34634;44.108;3.074;2023-06-19T09:39:38;4.93;;;4.10;;
48813;SDS011;34634;44.108;3.074;2023-06-19T09:42:08;7.07;;;4.50;;
48813;SDS011;34634;44.108;3.074;2023-06-19T09:44:41;7.50;;;4.80;;
48813;SDS011;34634;44.108;3.074;2023-06-19T09:47:14;9.25;;;4.05;;
48813;SDS011;34634;44.108;3.074;2023-06-19T09:49:45;8.15;;;5.00;;
48813;SDS011;34634;44.108;3.074;2023-06-19T09:52:14;8.60;;;4.28;;
48813;SDS011;34634;44.108;3.074;2023-06-19T09:54:41;9.15;;;4.68;;
48813;SDS011;34634;44.108;3.074;2023-06-19T09:57:10;6.03;;;4.45;;
48813;SDS011;34634;44.108;3.074;2023-06-19T09:59:37;6.28;;;4.60;;
48813;SDS011;34634;44.108;3.074;2023-06-19T10:02:04;8.95;;;4.10;;
48813;SDS011;34634;44.108;3.074;2023-06-19T10:04:41;6.05;;;4.03;;
48813;SDS011;34634;44.108;3.074;2023-06-19T10:07:17;5.57;;;3.58;;
48813;SDS011;34634;44.108;3.074;2023-06-19T10:12:22;4.30;;;3.33;;
48813;SDS011;34634;44.108;3.074;2023-06-19T10:14:48;5.72;;;3.33;;
48813;SDS011;34634;44.108;3.074;2023-06-19T10:17:18;4.35;;;3.60;;
48813;SDS011;34634;44.108;3.074;2023-06-19T10:19:50;3.95;;;3.42;;
48813;SDS011;34634;44.108;3.074;2023-06-19T10:22:20;5.82;;;3.22;;
48813;SDS011;34634;44.108;3.074;2023-06-19T10:24:49;3.70;;;3.40;;
48813;SDS011;34634;44.108;3.074;2023-06-19T10:27:23;10.05;;;3.75;;
48813;SDS011;34634;44.108;3.074;2023-06-19T10:29:53;4.47;;;3.38;;
48813;SDS011;34634;44.108;3.074;2023-06-19T10:34:46;4.95;;;3.30;;
48813;SDS011;34634;44.108;3.074;2023-06-19T10:37:13;4.13;;;2.90;;
48813;SDS011;34634;44.108;3.074;2023-06-19T10:39:39;6.85;;;3.20;;
48813;SDS011;34634;44.108;3.074;2023-06-19T10:42:06;5.18;;;3.22;;
48813;SDS011;34634;44.108;3.074;2023-06-19T10:44:33;5.07;;;3.00;;
48813;SDS011;34634;44.108;3.074;2023-06-19T10:47:01;8.00;;;3.30;;
48813;SDS011;34634;44.108;3.074;2023-06-19T10:49:27;4.30;;;3.35;;
48813;SDS011;34634;44.108;3.074;2023-06-19T10:51:53;5.95;;;3.28;;
48813;SDS011;34634;44.108;3.074;2023-06-19T10:54:24;5.18;;;3.20;;
48813;SDS011;34634;44.108;3.074;2023-06-19T10:56:51;5.22;;;3.28;;
48813;SDS011;34634;44.108;3.074;2023-06-19T10:59:17;4.63;;;3.50;;
48813;SDS011;34634;44.108;3.074;2023-06-19T11:01:47;4.20;;;3.25;;
48813;SDS011;34634;44.108;3.074;2023-06-19T11:04:15;4.45;;;3.05;;
48813;SDS011;34634;44.108;3.074;2023-06-19T11:06:44;9.30;;;3.58;;
48813;SDS011;34634;44.108;3.074;2023-06-19T11:09:12;5.03;;;3.33;;
48813;SDS011;34634;44.108;3.074;2023-06-19T11:11:39;3.85;;;3.17;;
48813;SDS011;34634;44.108;3.074;2023-06-19T11:14:06;5.63;;;3.10;;
48813;SDS011;34634;44.108;3.074;2023-06-19T11:16:33;5.10;;;2.92;;
48813;SDS011;34634;44.108;3.074;2023-06-19T11:19:00;3.65;;;3.03;;
48813;SDS011;34634;44.108;3.074;2023-06-19T11:21:33;5.05;;;3.22;;
48813;SDS011;34634;44.108;3.074;2023-06-19T11:24:02;5.88;;;3.22;;
48813;SDS011;34634;44.108;3.074;2023-06-19T11:26:34;3.60;;;3.30;;
48813;SDS011;34634;44.108;3.074;2023-06-19T11:29:01;4.80;;;3.17;;
48813;SDS011;34634;44.108;3.074;2023-06-19T11:31:28;7.20;;;3.55;;
48813;SDS011;34634;44.108;3.074;2023-06-19T11:33:55;5.90;;;3.50;;
48813;SDS011;34634;44.108;3.074;2023-06-19T11:36:22;5.45;;;3.38;;
48813;SDS011;34634;44.108;3.074;2023-06-19T11:38:51;5.18;;;3.80;;
48813;SDS011;34634;44.108;3.074;2023-06-19T11:41:24;4.72;;;3.70;;
48813;SDS011;34634;44.108;3.074;2023-06-19T11:43:57;4.30;;;3.60;;
48813;SDS011;34634;44.108;3.074;2023-06-19T11:46:27;8.73;;;3.60;;
48813;SDS011;34634;44.108;3.074;2023-06-19T11:48:54;4.38;;;3.45;;
48813;SDS011;34634;44.108;3.074;2023-06-19T11:51:21;3.85;;;3.20;;
48813;SDS011;34634;44.108;3.074;2023-06-19T11:53:48;3.83;;;3.28;;
48813;SDS011;34634;44.108;3.074;2023-06-19T11:56:14;6.65;;;3.25;;
48813;SDS011;34634;44.108;3.074;2023-06-19T11:58:40;4.65;;;3.58;;
48813;SDS011;34634;44.108;3.074;2023-06-19T12:01:07;5.68;;;3.22;;
48813;SDS011;34634;44.108;3.074;2023-06-19T12:03:33;5.82;;;4.00;;
48813;SDS011;34634;44.108;3.074;2023-06-19T12:05:59;4.13;;;3.10;;
48813;SDS011;34634;44.108;3.074;2023-06-19T12:08:26;6.68;;;3.30;;
48813;SDS011;34634;44.108;3.074;2023-06-19T12:10:52;5.05;;;3.40;;
48813;SDS011;34634;44.108;3.074;2023-06-19T12:13:18;5.70;;;3.17;;
48813;SDS011;34634;44.108;3.074;2023-06-19T12:15:45;5.30;;;3.50;;
48813;SDS011;34634;44.108;3.074;2023-06-19T12:18:11;4.65;;;3.42;;
48813;SDS011;34634;44.108;3.074;2023-06-19T12:20:37;7.03;;;3.17;;
48813;SDS011;34634;44.108;3.074;2023-06-19T12:23:04;5.32;;;3.33;;
48813;SDS011;34634;44.108;3.074;2023-06-19T12:25:30;4.55;;;3.40;;
48813;SDS011;34634;44.108;3.074;2023-06-19T12:27:57;4.80;;;3.00;;
48813;SDS011;34634;44.108;3.074;2023-06-19T12:30:23;5.20;;;3.47;;
48813;SDS011;34634;44.108;3.074;2023-06-19T12:32:50;3.70;;;3.20;;
48813;SDS011;34634;44.108;3.074;2023-06-19T12:35:16;4.53;;;3.10;;
48813;SDS011;34634;44.108;3.074;2023-06-19T12:37:43;5.43;;;3.03;;
48813;SDS011;34634;44.108;3.074;2023-06-19T12:40:09;4.45;;;3.03;;
48813;SDS011;34634;44.108;3.074;2023-06-19T12:42:36;8.13;;;3.20;;
48813;SDS011;34634;44.108;3.074;2023-06-19T12:45:02;4.93;;;3.47;;
48813;SDS011;34634;44.108;3.074;2023-06-19T12:47:29;4.93;;;3.10;;
48813;SDS011;34634;44.108;3.074;2023-06-19T12:49:55;6.70;;;3.05;;
48813;SDS011;34634;44.108;3.074;2023-06-19T12:52:21;4.93;;;3.17;;
48813;SDS011;34634;44.108;3.074;2023-06-19T12:54:48;3.33;;;2.97;;
48813;SDS011;34634;44.108;3.074;2023-06-19T12:57:14;3.83;;;3.10;;
48813;SDS011;34634;44.108;3.074;2023-06-19T12:59:40;4.20;;;3.10;;
48813;SDS011;34634;44.108;3.074;2023-06-19T13:02:07;4.95;;;3.10;;
48813;SDS011;34634;44.108;3.074;2023-06-19T13:04:33;4.82;;;3.58;;
48813;SDS011;34634;44.108;3.074;2023-06-19T13:06:59;4.03;;;3.05;;
48813;SDS011;34634;44.108;3.074;2023-06-19T13:09:26;4.45;;;3.17;;
48813;SDS011;34634;44.108;3.074;2023-06-19T13:11:52;5.30;;;3.60;;
48813;SDS011;34634;44.108;3.074;2023-06-19T13:14:18;4.50;;;3.33;;
48813;SDS011;34634;44.108;3.074;2023-06-19T13:16:45;4.35;;;3.30;;
48813;SDS011;34634;44.108;3.074;2023-06-19T13:19:11;6.88;;;3.42;;
48813;SDS011;34634;44.108;3.074;2023-06-19T13:21:37;6.40;;;3.30;;
48813;SDS011;34634;44.108;3.074;2023-06-19T13:24:04;5.60;;;3.35;;
48813;SDS011;34634;44.108;3.074;2023-06-19T13:26:30;5.60;;;3.72;;
48813;SDS011;34634;44.108;3.074;2023-06-19T13:28:56;5.75;;;3.35;;
48813;SDS011;34634;44.108;3.074;2023-06-19T13:31:24;4.88;;;3.60;;
48813;SDS011;34634;44.108;3.074;2023-06-19T13:33:51;4.45;;;3.17;;
48813;SDS011;34634;44.108;3.074;2023-06-19T13:36:17;4.75;;;3.60;;
48813;SDS011;34634;44.108;3.074;2023-06-19T13:38:45;5.70;;;4.03;;
48813;SDS011;34634;44.108;3.074;2023-06-19T13:41:12;4.28;;;3.25;;
48813;SDS011;34634;44.108;3.074;2023-06-19T13:43:38;4.95;;;3.53;;
48813;SDS011;34634;44.108;3.074;2023-06-19T13:46:06;5.65;;;3.83;;
48813;SDS011;34634;44.108;3.074;2023-06-19T13:48:32;5.40;;;3.60;;
48813;SDS011;34634;44.108;3.074;2023-06-19T13:50:59;6.20;;;3.65;;
48813;SDS011;34634;44.108;3.074;2023-06-19T13:53:26;7.18;;;3.90;;
48813;SDS011;34634;44.108;3.074;2023-06-19T13:55:54;5.15;;;3.60;;
48813;SDS011;34634;44.108;3.074;2023-06-19T13:58:20;6.07;;;3.65;;
48813;SDS011;34634;44.108;3.074;2023-06-19T14:00:47;8.07;;;3.97;;
48813;SDS011;34634;44.108;3.074;2023-06-19T14:03:13;4.45;;;3.63;;
48813;SDS011;34634;44.108;3.074;2023-06-19T14:05:39;5.53;;;3.97;;
48813;SDS011;34634;44.108;3.074;2023-06-19T14:08:06;4.60;;;3.95;;
48813;SDS011;34634;44.108;3.074;2023-06-19T14:10:33;5.97;;;4.00;;
48813;SDS011;34634;44.108;3.074;2023-06-19T14:13:00;10.02;;;4.45;;
48813;SDS011;34634;44.108;3.074;2023-06-19T14:15:27;8.82;;;4.07;;
48813;SDS011;34634;44.108;3.074;2023-06-19T14:17:53;6.95;;;4.10;;
48813;SDS011;34634;44.108;3.074;2023-06-19T14:20:19;7.43;;;4.03;;
48813;SDS011;34634;44.108;3.074;2023-06-19T14:22:46;4.82;;;3.95;;
48813;SDS011;34634;44.108;3.074;2023-06-19T14:25:12;4.85;;;4.20;;
48813;SDS011;34634;44.108;3.074;2023-06-19T14:27:38;7.38;;;4.30;;
48813;SDS011;34634;44.108;3.074;2023-06-19T14:30:05;5.35;;;4.30;;
48813;SDS011;34634;44.108;3.074;2023-06-19T14:32:33;6.22;;;4.10;;
48813;SDS011;34634;44.108;3.074;2023-06-19T14:34:59;8.90;;;3.67;;
48813;SDS011;34634;44.108;3.074;2023-06-19T14:37:26;11.38;;;4.55;;
48813;SDS011;34634;44.108;3.074;2023-06-19T14:39:52;7.13;;;4.47;;
48813;SDS011;34634;44.108;3.074;2023-06-19T14:42:20;6.82;;;4.93;;
48813;SDS011;34634;44.108;3.074;2023-06-19T14:44:46;6.50;;;5.05;;
48813;SDS011;34634;44.108;3.074;2023-06-19T14:47:12;6.35;;;4.32;;
48813;SDS011;34634;44.108;3.074;2023-06-19T14:49:39;7.13;;;4.47;;
48813;SDS011;34634;44.108;3.074;2023-06-19T14:52:05;6.13;;;3.97;;
48813;SDS011;34634;44.108;3.074;2023-06-19T14:54:33;5.00;;;4.07;;
48813;SDS011;34634;44.108;3.074;2023-06-19T14:56:59;6.45;;;4.45;;